Decoded Metar for KECG (ELIZABETH CITY in NC, USA) (IATA:ECG) | Meteo·Mobile Aviation Weather
aviador You're here:

KECG Decoded Metar

ELIZABETH CITY in NC, USA
Report Time2018-09-24 07:54:00
UTC Time2018-09-24 08:12:23
Flight Rules lifr LIFR
Wind330° at 06 kt
W.Decomp.*RWY 01: 5.0 kt HW 3.3 kt LCW
RWY 28: 3.3 kt HW 5.0 kt RCW
W.Rank330° ranks 24
Current wind is below 330° avg. (8.9)
Visibility9999 m
Phenomena:N/A
Clouds:Overcast 004 Hf
Ceiling400 ft
Temp23°C (ISA +8)
Dew Point23°C (100% RH)
QNH1021 hPa
Density Alt1,073 ft
Elevation36 ft
Report Wrong Elevation
Raw Report
KECG 240754Z AUTO 33006KT 10SM OVC004 23/23 A3015 RMK AO2 SLP208
T02280228=

Extra information for KECG:More info

Metar Taf Metar & Taf Last 4 Metars F.Rules Stats Wind Profile Meteogram Temp Stats Airport Information Weather charts Add Link Nearby VenuesMetar ALERT Operation Metar Decoded Social comments

AIRNAV info for KECG